createdAt,value
2022-10-30T00:00:55.364Z,0.00
2022-10-30T00:01:55.542Z,0.00
2022-10-30T00:02:55.756Z,0.00
2022-10-30T00:03:55.367Z,0.00
2022-10-30T00:04:55.359Z,0.00
2022-10-30T00:05:55.349Z,0.00
2022-10-30T00:06:55.351Z,0.00
2022-10-30T00:07:55.578Z,0.00
2022-10-30T00:08:55.350Z,0.00
2022-10-30T00:09:55.343Z,0.00
2022-10-30T00:10:55.325Z,0.00
2022-10-30T00:11:55.313Z,0.00
2022-10-30T00:12:55.322Z,0.00
2022-10-30T00:13:55.332Z,0.00
2022-10-30T00:14:55.300Z,0.00
2022-10-30T00:15:55.294Z,0.00
2022-10-30T00:16:55.277Z,0.00
2022-10-30T00:17:55.589Z,0.00
2022-10-30T00:18:55.295Z,0.00
2022-10-30T00:19:55.279Z,0.00
2022-10-30T00:20:55.304Z,0.00
2022-10-30T00:22:42.050Z,0.00
2022-10-30T00:23:42.167Z,0.00
2022-10-30T00:24:42.066Z,0.00
2022-10-30T00:25:42.054Z,0.00
2022-10-30T00:26:42.047Z,0.00
2022-10-30T00:27:42.041Z,0.00
2022-10-30T00:28:42.025Z,0.00
2022-10-30T00:29:42.041Z,0.00
2022-10-30T00:30:42.014Z,0.00
2022-10-30T00:31:42.015Z,0.00
2022-10-30T00:32:41.998Z,0.00
2022-10-30T00:33:42.017Z,0.00
2022-10-30T00:34:41.999Z,0.00
2022-10-30T00:35:42.103Z,0.00
2022-10-30T00:36:41.991Z,0.00
2022-10-30T00:37:41.985Z,0.00
2022-10-30T00:38:41.973Z,0.00
2022-10-30T00:39:41.977Z,0.00
2022-10-30T00:40:41.970Z,0.00
2022-10-30T00:41:42.067Z,0.00
2022-10-30T00:42:41.952Z,0.00
2022-10-30T00:43:41.934Z,0.00
2022-10-30T00:44:41.940Z,0.00
2022-10-30T00:45:41.938Z,0.00
2022-10-30T00:46:41.915Z,0.00
2022-10-30T00:47:42.040Z,0.00
2022-10-30T00:48:41.902Z,0.00
2022-10-30T00:49:41.896Z,0.00
2022-10-30T00:50:41.891Z,0.00
2022-10-30T00:51:41.897Z,0.00
2022-10-30T00:52:41.888Z,0.00
2022-10-30T00:53:41.911Z,0.00
2022-10-30T00:54:41.868Z,0.00
2022-10-30T00:55:41.875Z,0.00
2022-10-30T00:56:41.857Z,0.00
2022-10-30T00:57:42.983Z,0.00
2022-10-30T00:58:43.022Z,0.00
2022-10-30T00:59:42.971Z,0.00
2022-10-30T01:00:42.948Z,0.00
2022-10-30T01:01:43.075Z,0.00
2022-10-30T01:02:43.025Z,0.00
2022-10-30T01:03:42.929Z,0.00
2022-10-30T01:04:42.948Z,0.00
2022-10-30T01:05:42.911Z,0.00
2022-10-30T01:06:42.911Z,0.00
2022-10-30T01:07:42.906Z,0.00
2022-10-30T01:08:43.100Z,0.00
2022-10-30T01:09:42.926Z,0.00
2022-10-30T01:10:42.893Z,0.00
2022-10-30T01:11:42.895Z,0.00
2022-10-30T01:12:42.870Z,0.00
2022-10-30T01:13:42.869Z,0.00
2022-10-30T01:14:42.857Z,0.00
2022-10-30T01:15:43.002Z,0.00
2022-10-30T01:16:42.838Z,0.00
2022-10-30T01:17:42.850Z,0.00
2022-10-30T01:18:42.917Z,0.00
2022-10-30T01:19:42.838Z,0.00
2022-10-30T01:20:42.833Z,0.00
2022-10-30T01:21:42.809Z,0.00
2022-10-30T01:22:42.813Z,0.00
2022-10-30T01:23:42.791Z,0.00
2022-10-30T01:24:42.813Z,0.00
2022-10-30T01:25:42.792Z,0.00
2022-10-30T01:26:42.890Z,0.00
2022-10-30T01:27:42.774Z,0.00
2022-10-30T01:28:42.767Z,0.00
2022-10-30T01:29:42.765Z,0.00
2022-10-30T01:30:42.762Z,0.00
2022-10-30T01:31:42.867Z,0.00
2022-10-30T01:32:42.751Z,0.00
2022-10-30T01:33:42.736Z,0.00
2022-10-30T01:35:43.732Z,0.00
2022-10-30T01:36:42.708Z,0.00
2022-10-30T01:37:42.830Z,0.00
2022-10-30T01:38:42.720Z,0.00
2022-10-30T01:39:42.693Z,0.00
2022-10-30T01:40:42.691Z,0.00
2022-10-30T01:41:42.699Z,0.00
2022-10-30T01:42:42.723Z,0.00
2022-10-30T01:43:42.699Z,0.00
2022-10-30T01:44:42.664Z,0.00
2022-10-30T01:45:42.662Z,0.00
2022-10-30T01:46:42.655Z,0.00
2022-10-30T01:47:42.642Z,0.00
2022-10-30T01:48:42.753Z,0.00
2022-10-30T01:49:42.631Z,0.00
2022-10-30T01:50:42.630Z,0.00
2022-10-30T01:51:42.638Z,0.00
2022-10-30T01:52:42.604Z,0.00
2022-10-30T01:53:42.718Z,0.00
2022-10-30T01:54:42.597Z,0.00
2022-10-30T01:55:42.596Z,0.00
2022-10-30T01:56:42.595Z,0.00
2022-10-30T01:57:42.585Z,0.00
2022-10-30T01:58:42.583Z,0.00
2022-10-30T01:59:42.677Z,0.00
2022-10-30T02:00:42.569Z,0.00
2022-10-30T02:01:42.672Z,0.00
2022-10-30T02:02:42.714Z,0.00
2022-10-30T02:03:42.545Z,0.00
2022-10-30T02:04:42.655Z,0.00
2022-10-30T02:05:42.553Z,0.00
2022-10-30T02:06:42.542Z,0.00
2022-10-30T02:07:42.529Z,0.00
2022-10-30T02:08:42.529Z,0.00
2022-10-30T02:09:42.520Z,0.00
2022-10-30T02:10:42.619Z,0.00
2022-10-30T02:11:42.505Z,0.00
2022-10-30T02:12:42.491Z,0.00
2022-10-30T02:13:42.492Z,0.00
2022-10-30T02:14:42.491Z,0.00
2022-10-30T02:15:42.599Z,0.00
2022-10-30T02:16:42.477Z,0.00
2022-10-30T02:17:42.822Z,0.00
2022-10-30T02:18:42.489Z,0.00
2022-10-30T02:19:42.450Z,0.00
2022-10-30T02:20:42.432Z,0.00
2022-10-30T02:21:42.564Z,0.00
2022-10-30T02:22:42.520Z,0.00
2022-10-30T02:23:42.420Z,0.00
2022-10-30T02:24:42.421Z,0.00
2022-10-30T02:25:42.407Z,0.00
2022-10-30T02:26:42.430Z,0.00
2022-10-30T02:27:42.389Z,0.00
2022-10-30T02:28:42.393Z,0.00
2022-10-30T02:29:42.386Z,0.00
2022-10-30T02:30:42.379Z,0.00
2022-10-30T02:31:42.381Z,0.00
2022-10-30T02:32:42.382Z,0.00
2022-10-30T02:33:42.367Z,0.00
2022-10-30T02:34:42.351Z,0.00
2022-10-30T02:35:42.352Z,0.00
2022-10-30T02:36:42.333Z,0.00
2022-10-30T02:37:42.366Z,0.00
2022-10-30T02:38:42.381Z,0.00
2022-10-30T02:39:42.323Z,0.00
2022-10-30T02:40:42.327Z,0.00
2022-10-30T02:41:42.311Z,0.00
2022-10-30T02:42:42.302Z,0.00
2022-10-30T02:43:42.306Z,0.00
2022-10-30T02:44:42.290Z,0.00
2022-10-30T02:45:42.286Z,0.00
2022-10-30T02:46:42.285Z,0.00
2022-10-30T02:47:42.267Z,0.00
2022-10-30T02:48:42.290Z,0.00
2022-10-30T02:49:42.264Z,0.00
2022-10-30T02:50:42.255Z,0.00
2022-10-30T02:51:42.243Z,0.00
2022-10-30T02:52:42.236Z,0.00
2022-10-30T02:53:42.220Z,0.00
2022-10-30T02:54:42.252Z,0.00
2022-10-30T02:55:42.241Z,0.00
2022-10-30T02:56:42.228Z,0.00
2022-10-30T02:57:42.209Z,0.00
2022-10-30T02:58:42.202Z,0.00
2022-10-30T02:59:42.211Z,0.00
2022-10-30T03:00:42.181Z,0.00
2022-10-30T03:01:42.348Z,0.00
2022-10-30T03:02:42.214Z,0.00
2022-10-30T03:03:42.164Z,0.00
2022-10-30T03:04:42.173Z,0.00
2022-10-30T03:05:42.182Z,0.00
2022-10-30T03:06:42.142Z,0.00
2022-10-30T03:07:42.139Z,0.00
2022-10-30T03:08:42.138Z,0.00
2022-10-30T03:09:42.124Z,0.00
2022-10-30T03:10:42.136Z,0.00
2022-10-30T03:11:42.132Z,0.00
2022-10-30T03:12:42.100Z,0.00
2022-10-30T03:13:42.119Z,0.00
2022-10-30T03:14:42.087Z,0.00
2022-10-30T03:15:42.086Z,0.00
2022-10-30T03:16:42.175Z,0.00
2022-10-30T03:18:42.066Z,0.00
2022-10-30T03:19:42.063Z,0.00
2022-10-30T03:20:42.063Z,0.00
2022-10-30T03:21:42.086Z,0.00
2022-10-30T03:22:42.036Z,0.00
2022-10-30T03:23:42.023Z,0.00
2022-10-30T03:24:42.027Z,0.00
2022-10-30T03:25:42.043Z,0.00
2022-10-30T03:26:42.009Z,0.00
2022-10-30T03:27:42.144Z,0.00
2022-10-30T03:28:42.002Z,0.00
2022-10-30T03:29:42.012Z,0.00
2022-10-30T03:30:42.012Z,0.00
2022-10-30T03:31:41.998Z,0.00
2022-10-30T03:32:42.011Z,0.00
2022-10-30T03:33:41.979Z,0.00
2022-10-30T03:34:41.973Z,0.00
2022-10-30T03:35:41.979Z,0.00
2022-10-30T03:36:41.946Z,0.00
2022-10-30T03:37:41.956Z,0.00
2022-10-30T03:38:42.068Z,0.00
2022-10-30T03:39:41.931Z,0.00
2022-10-30T03:40:41.943Z,0.00
2022-10-30T03:41:41.917Z,0.00
2022-10-30T03:42:41.932Z,0.00
2022-10-30T03:43:42.036Z,0.00
2022-10-30T03:44:41.913Z,0.00
2022-10-30T03:45:41.916Z,0.00
2022-10-30T03:46:41.896Z,0.00
2022-10-30T03:47:41.892Z,0.00
2022-10-30T03:48:41.897Z,0.00
2022-10-30T03:49:41.906Z,0.00
2022-10-30T03:50:41.872Z,0.00
2022-10-30T03:51:41.859Z,0.00
2022-10-30T03:52:41.872Z,0.00
2022-10-30T03:53:41.849Z,0.00
2022-10-30T03:54:41.976Z,0.00
2022-10-30T03:55:41.828Z,0.00
2022-10-30T03:56:41.828Z,0.00
2022-10-30T03:57:41.834Z,0.00
2022-10-30T03:58:41.816Z,0.00
2022-10-30T03:59:41.836Z,0.00
2022-10-30T04:00:41.820Z,0.00
2022-10-30T04:01:42.004Z,0.00
2022-10-30T04:02:41.768Z,0.00
2022-10-30T04:03:41.777Z,0.00
2022-10-30T04:04:41.784Z,0.00
2022-10-30T04:05:41.796Z,0.00
2022-10-30T04:06:41.766Z,0.00
2022-10-30T04:07:41.745Z,0.00
2022-10-30T04:08:41.748Z,0.00
2022-10-30T04:09:41.745Z,0.00
2022-10-30T04:10:41.796Z,0.00
2022-10-30T04:11:41.844Z,0.00
2022-10-30T04:12:41.741Z,0.00
2022-10-30T04:13:41.723Z,0.00
2022-10-30T04:14:41.713Z,0.00
2022-10-30T04:15:41.731Z,0.00
2022-10-30T04:16:41.740Z,0.00
2022-10-30T04:17:41.699Z,0.00
2022-10-30T04:18:41.676Z,0.00
2022-10-30T04:19:41.678Z,0.00
2022-10-30T04:20:41.690Z,0.00
2022-10-30T04:21:41.683Z,0.00
2022-10-30T04:22:41.764Z,0.00
2022-10-30T04:23:41.663Z,0.00
2022-10-30T04:24:41.701Z,0.00
2022-10-30T04:25:41.656Z,0.00
2022-10-30T04:26:41.637Z,0.00
2022-10-30T04:27:41.742Z,0.00
2022-10-30T04:28:41.617Z,0.00
2022-10-30T04:29:41.629Z,0.00
2022-10-30T04:30:41.609Z,0.00
2022-10-30T04:31:41.612Z,0.00
2022-10-30T04:32:41.599Z,0.00
2022-10-30T04:33:41.739Z,0.00
2022-10-30T04:34:41.584Z,0.00
2022-10-30T04:35:41.581Z,0.00
2022-10-30T04:36:41.576Z,0.00
2022-10-30T04:37:41.586Z,0.00
2022-10-30T04:38:41.670Z,0.00
2022-10-30T04:39:45.461Z,0.00
2022-10-30T04:40:41.557Z,0.00
2022-10-30T04:41:41.541Z,0.00
2022-10-30T04:42:41.539Z,0.00
2022-10-30T04:43:41.530Z,0.00
2022-10-30T04:44:41.564Z,0.00
2022-10-30T04:45:41.517Z,0.00
2022-10-30T04:46:41.536Z,0.00
2022-10-30T04:47:41.510Z,0.00
2022-10-30T04:48:41.496Z,0.00
2022-10-30T04:49:41.512Z,0.00
2022-10-30T04:50:41.501Z,0.00
2022-10-30T04:51:41.500Z,0.00
2022-10-30T04:52:41.478Z,0.00
2022-10-30T04:53:41.485Z,0.00
2022-10-30T04:54:41.481Z,0.00
2022-10-30T04:55:41.579Z,0.00
2022-10-30T04:56:41.462Z,0.00
2022-10-30T04:57:41.436Z,0.00
2022-10-30T04:58:41.445Z,0.00
2022-10-30T04:59:41.445Z,0.00
2022-10-30T05:00:41.523Z,0.00
2022-10-30T05:01:41.550Z,0.00
2022-10-30T05:02:41.628Z,0.00
2022-10-30T05:03:41.415Z,0.00
2022-10-30T05:04:41.396Z,0.00
2022-10-30T05:05:41.387Z,0.00
2022-10-30T05:06:41.407Z,0.00
2022-10-30T05:07:41.397Z,0.00
2022-10-30T05:08:41.369Z,0.00
2022-10-30T05:09:41.352Z,0.00
2022-10-30T05:10:41.368Z,0.00
2022-10-30T05:11:41.394Z,0.00
2022-10-30T05:12:41.360Z,0.00
2022-10-30T05:13:41.339Z,0.00
2022-10-30T05:14:41.358Z,0.00
2022-10-30T05:15:41.339Z,0.00
2022-10-30T05:16:41.326Z,0.00
2022-10-30T05:17:41.477Z,0.00
2022-10-30T05:18:41.359Z,0.00
2022-10-30T05:19:41.293Z,0.00
2022-10-30T05:20:41.306Z,0.00
2022-10-30T05:21:41.291Z,0.00
2022-10-30T05:22:41.303Z,0.00
2022-10-30T05:23:41.276Z,0.00
2022-10-30T05:24:41.282Z,0.00
2022-10-30T05:25:41.267Z,0.00
2022-10-30T05:26:41.266Z,0.00
2022-10-30T05:27:41.252Z,0.00
2022-10-30T05:28:42.272Z,0.00
2022-10-30T05:29:41.224Z,0.00
2022-10-30T05:30:41.241Z,0.00
2022-10-30T05:31:41.215Z,0.00
2022-10-30T05:32:41.222Z,0.00
2022-10-30T05:33:41.206Z,0.00
2022-10-30T05:34:41.215Z,0.00
2022-10-30T05:35:41.204Z,0.00
2022-10-30T05:36:41.196Z,0.00
2022-10-30T05:37:41.192Z,0.00
2022-10-30T05:38:41.194Z,0.00
2022-10-30T05:39:41.204Z,0.00
2022-10-30T05:40:41.157Z,0.00
2022-10-30T05:41:41.164Z,0.00
2022-10-30T05:42:41.162Z,0.00
2022-10-30T05:43:41.142Z,0.00
2022-10-30T05:44:59.931Z,0.00
2022-10-30T05:45:43.156Z,0.00
2022-10-30T05:46:41.133Z,0.00
2022-10-30T05:47:41.130Z,0.00
2022-10-30T05:48:41.118Z,0.00
2022-10-30T05:49:41.133Z,0.00
2022-10-30T05:50:41.116Z,0.00
2022-10-30T05:51:41.097Z,0.00
2022-10-30T05:52:41.085Z,0.00
2022-10-30T05:53:41.085Z,0.00
2022-10-30T05:54:41.071Z,0.00
2022-10-30T05:55:41.170Z,0.00
2022-10-30T05:56:41.070Z,0.00
2022-10-30T05:57:41.061Z,0.00
2022-10-30T05:58:41.053Z,0.00
2022-10-30T05:59:41.044Z,0.00
2022-10-30T06:00:41.067Z,0.00
2022-10-30T06:01:41.192Z,0.00
2022-10-30T06:02:41.062Z,0.00
2022-10-30T06:03:41.110Z,0.00
2022-10-30T06:04:41.020Z,5.62
2022-10-30T06:05:41.022Z,5.62
2022-10-30T06:06:41.022Z,5.62
2022-10-30T06:07:40.990Z,5.62
2022-10-30T06:08:40.999Z,5.62
2022-10-30T06:09:40.984Z,5.62
2022-10-30T06:10:40.995Z,11.25
2022-10-30T06:11:40.999Z,11.25
2022-10-30T06:12:41.000Z,11.25
2022-10-30T06:13:40.943Z,11.25
2022-10-30T06:14:40.937Z,11.25
2022-10-30T06:15:40.938Z,11.25
2022-10-30T06:16:40.941Z,16.88
2022-10-30T06:17:40.966Z,16.88
2022-10-30T06:18:40.944Z,16.88
2022-10-30T06:19:40.931Z,16.88
2022-10-30T06:20:40.905Z,22.50
2022-10-30T06:21:40.897Z,22.50
2022-10-30T06:22:40.932Z,22.50
2022-10-30T06:23:40.901Z,22.50
2022-10-30T06:24:40.925Z,28.12
2022-10-30T06:25:41.605Z,28.12
2022-10-30T06:26:40.871Z,33.75
2022-10-30T06:27:40.874Z,33.75
2022-10-30T06:28:40.970Z,33.75
2022-10-30T06:29:40.847Z,39.38
2022-10-30T06:30:40.833Z,45.00
2022-10-30T06:31:41.857Z,45.00
2022-10-30T06:32:40.847Z,50.62
2022-10-30T06:33:40.937Z,50.62
2022-10-30T06:34:40.838Z,50.62
2022-10-30T06:35:40.824Z,50.62
2022-10-30T06:36:40.863Z,56.25
2022-10-30T06:37:40.816Z,56.25
2022-10-30T06:38:40.795Z,56.25
2022-10-30T06:39:40.896Z,56.25
2022-10-30T06:40:40.795Z,61.88
2022-10-30T06:41:40.784Z,61.88
2022-10-30T06:42:40.760Z,61.88
2022-10-30T06:43:40.761Z,67.50
2022-10-30T06:44:40.805Z,67.50
2022-10-30T06:45:40.750Z,73.12
2022-10-30T06:46:40.746Z,73.12
2022-10-30T06:47:40.746Z,78.75
2022-10-30T06:48:40.745Z,78.75
2022-10-30T06:49:40.729Z,78.75
2022-10-30T06:50:40.729Z,78.75
2022-10-30T06:51:40.697Z,73.12
2022-10-30T06:52:40.695Z,78.75
2022-10-30T06:53:40.689Z,78.75
2022-10-30T06:54:40.688Z,78.75
2022-10-30T06:55:40.799Z,78.75
2022-10-30T06:56:40.687Z,84.38
2022-10-30T06:57:40.679Z,84.38
2022-10-30T06:58:40.672Z,90.00
2022-10-30T06:59:40.655Z,95.62
2022-10-30T07:00:40.717Z,95.62
2022-10-30T07:01:40.790Z,101.25
2022-10-30T07:02:40.628Z,106.88
2022-10-30T07:03:40.648Z,112.50
2022-10-30T07:04:40.645Z,118.12
2022-10-30T07:05:40.631Z,123.75
2022-10-30T07:06:40.647Z,129.38
2022-10-30T07:07:40.643Z,135.00
2022-10-30T07:08:40.591Z,140.62
2022-10-30T07:09:40.637Z,146.25
2022-10-30T07:10:40.592Z,151.88
2022-10-30T07:11:41.606Z,157.50
2022-10-30T07:12:40.591Z,168.75
2022-10-30T07:13:40.593Z,174.38
2022-10-30T07:14:40.576Z,180.00
2022-10-30T07:16:40.572Z,180.00
2022-10-30T07:17:42.262Z,185.62
2022-10-30T07:18:40.587Z,185.62
2022-10-30T07:19:40.538Z,185.62
2022-10-30T07:20:40.515Z,180.00
2022-10-30T07:21:40.515Z,180.00
2022-10-30T07:22:40.675Z,180.00
2022-10-30T07:23:40.525Z,180.00
2022-10-30T07:24:40.511Z,174.38
2022-10-30T07:25:40.487Z,180.00
2022-10-30T07:26:40.502Z,180.00
2022-10-30T07:27:40.476Z,180.00
2022-10-30T07:28:40.503Z,185.62
2022-10-30T07:29:41.466Z,185.62
2022-10-30T07:30:40.469Z,191.25
2022-10-30T07:31:42.712Z,196.88
2022-10-30T07:32:42.447Z,208.12
2022-10-30T07:33:40.579Z,213.75
2022-10-30T07:34:40.458Z,230.62
2022-10-30T07:35:40.461Z,247.50
2022-10-30T07:36:40.436Z,270.00
2022-10-30T07:37:40.430Z,286.88
2022-10-30T07:38:40.421Z,298.12
2022-10-30T07:39:40.433Z,320.62
2022-10-30T07:40:40.415Z,371.25
2022-10-30T07:41:40.392Z,635.62
2022-10-30T07:42:40.398Z,1181.25
2022-10-30T07:43:40.401Z,444.38
2022-10-30T07:44:40.501Z,421.88
2022-10-30T07:45:40.387Z,500.62
2022-10-30T07:46:40.389Z,776.25
2022-10-30T07:47:40.340Z,534.38
2022-10-30T07:48:41.352Z,478.12
2022-10-30T07:49:40.373Z,759.38
2022-10-30T07:50:40.405Z,860.62
2022-10-30T07:51:40.343Z,804.38
2022-10-30T07:52:40.342Z,1046.25
2022-10-30T07:53:40.370Z,1687.50
2022-10-30T07:54:40.318Z,849.38
2022-10-30T07:55:40.445Z,675.00
2022-10-30T07:56:40.342Z,1046.25
2022-10-30T07:57:40.287Z,1046.25
2022-10-30T07:58:45.216Z,1586.25
2022-10-30T07:59:42.350Z,1620.00
2022-10-30T08:00:40.300Z,1479.38
2022-10-30T08:01:40.519Z,1586.25
2022-10-30T08:02:40.513Z,1670.62
2022-10-30T08:03:40.260Z,1434.38
2022-10-30T08:04:40.300Z,1738.12
2022-10-30T08:05:40.270Z,1608.75
2022-10-30T08:06:40.323Z,2283.75
2022-10-30T08:07:40.242Z,2205.00
2022-10-30T08:08:43.113Z,1513.12
2022-10-30T08:09:40.233Z,1170.00
2022-10-30T08:10:40.233Z,2283.75
2022-10-30T08:11:40.222Z,1355.62
2022-10-30T08:12:40.247Z,1293.75
2022-10-30T08:13:40.223Z,2210.62
2022-10-30T08:14:40.197Z,2548.12
2022-10-30T08:15:40.195Z,2671.88
2022-10-30T08:16:40.184Z,2941.88
2022-10-30T08:17:40.203Z,3003.75
2022-10-30T08:18:40.208Z,3015.00
2022-10-30T08:19:40.166Z,3015.00
2022-10-30T08:20:40.211Z,1839.38
2022-10-30T08:21:40.153Z,3088.12
2022-10-30T08:22:40.140Z,2970.00
2022-10-30T08:23:40.149Z,2958.75
2022-10-30T08:24:40.138Z,2840.62
2022-10-30T08:25:40.124Z,2925.00
2022-10-30T08:26:40.120Z,3093.75
2022-10-30T08:27:40.118Z,2941.88
2022-10-30T08:28:40.252Z,2610.00
2022-10-30T08:29:40.090Z,3071.25
2022-10-30T08:30:40.104Z,3358.12
2022-10-30T08:31:40.135Z,3352.50
2022-10-30T08:32:40.080Z,2328.75
2022-10-30T08:33:40.098Z,3195.00
2022-10-30T08:34:40.207Z,3240.00
2022-10-30T08:35:40.069Z,3211.88
2022-10-30T08:36:42.664Z,3352.50
2022-10-30T08:37:40.046Z,3240.00
2022-10-30T08:38:40.045Z,2885.62
2022-10-30T08:39:40.070Z,3166.88
2022-10-30T08:40:40.046Z,3453.75
2022-10-30T08:41:40.044Z,2925.00
2022-10-30T08:42:40.040Z,3234.38
2022-10-30T08:43:40.033Z,1479.38
2022-10-30T08:44:40.062Z,2317.50
2022-10-30T08:45:40.127Z,1856.25
2022-10-30T08:46:40.035Z,2025.00
2022-10-30T08:47:40.024Z,3054.38
2022-10-30T08:48:40.009Z,1569.38
2022-10-30T08:49:39.996Z,1395.00
2022-10-30T08:50:40.157Z,2553.75
2022-10-30T08:51:39.996Z,3346.88
2022-10-30T08:52:40.021Z,3172.50
2022-10-30T08:53:39.973Z,2981.25
2022-10-30T08:54:40.048Z,3245.62
2022-10-30T08:55:39.978Z,3583.12
2022-10-30T08:56:40.081Z,3526.88
2022-10-30T08:57:40.008Z,3341.25
2022-10-30T08:58:39.951Z,3211.88
2022-10-30T08:59:39.946Z,3178.12
2022-10-30T09:00:39.919Z,2784.38
2022-10-30T09:01:40.127Z,2671.88
2022-10-30T09:02:40.105Z,2655.00
2022-10-30T09:03:39.904Z,2587.50
2022-10-30T09:04:39.900Z,2621.25
2022-10-30T09:05:40.897Z,2581.88
2022-10-30T09:06:39.884Z,2559.38
2022-10-30T09:07:39.911Z,2643.75
2022-10-30T09:08:39.895Z,2514.38
2022-10-30T09:09:39.874Z,2407.50
2022-10-30T09:10:39.875Z,2621.25
2022-10-30T09:11:39.882Z,2778.75
2022-10-30T09:12:39.999Z,3082.50
2022-10-30T09:13:39.862Z,2857.50
2022-10-30T09:14:39.860Z,2913.75
2022-10-30T09:15:39.862Z,2829.38
2022-10-30T09:16:39.856Z,2874.38
2022-10-30T09:17:39.826Z,3110.62
2022-10-30T09:18:39.924Z,3076.88
2022-10-30T09:19:39.876Z,2621.25
2022-10-30T09:20:39.793Z,2745.00
2022-10-30T09:21:39.818Z,2840.62
2022-10-30T09:22:39.802Z,2722.50
2022-10-30T09:23:39.831Z,2745.00
2022-10-30T09:24:39.805Z,3093.75
2022-10-30T09:25:39.786Z,3498.75
2022-10-30T09:26:39.788Z,3510.00
2022-10-30T09:27:39.789Z,3285.00
2022-10-30T09:28:39.769Z,3144.38
2022-10-30T09:29:39.794Z,3133.12
2022-10-30T09:30:39.768Z,3217.50
2022-10-30T09:31:39.757Z,3290.62
2022-10-30T09:32:39.773Z,3358.12
2022-10-30T09:33:39.750Z,3363.75
2022-10-30T09:34:39.859Z,3189.38
2022-10-30T09:35:39.751Z,3206.25
2022-10-30T09:36:39.728Z,3105.00
2022-10-30T09:37:39.728Z,3105.00
2022-10-30T09:38:39.765Z,2525.62
2022-10-30T09:39:39.734Z,2548.12
2022-10-30T09:40:39.829Z,2801.25
2022-10-30T09:41:39.689Z,2896.88
2022-10-30T09:42:39.704Z,2998.12
2022-10-30T09:43:39.691Z,3110.62
2022-10-30T09:44:39.688Z,3324.38
2022-10-30T09:45:39.714Z,3397.50
2022-10-30T09:46:39.683Z,3228.75
2022-10-30T09:47:39.695Z,3166.88
2022-10-30T09:48:39.678Z,3420.00
2022-10-30T09:49:39.676Z,3262.50
2022-10-30T09:50:39.896Z,3330.00
2022-10-30T09:51:39.673Z,3144.38
2022-10-30T09:52:39.653Z,2632.50
2022-10-30T09:53:39.654Z,2851.88
2022-10-30T09:54:39.654Z,2688.75
2022-10-30T09:55:39.632Z,2913.75
2022-10-30T09:56:39.658Z,3060.00
2022-10-30T09:57:39.624Z,2891.25
2022-10-30T09:58:39.626Z,2958.75
2022-10-30T09:59:39.629Z,3161.25
2022-10-30T10:00:39.614Z,3054.38
2022-10-30T10:01:39.795Z,3020.62
2022-10-30T10:02:39.763Z,3121.88
2022-10-30T10:03:39.704Z,3290.62
2022-10-30T10:04:39.593Z,3532.50
2022-10-30T10:05:39.588Z,3622.50
2022-10-30T10:06:39.588Z,3521.25
2022-10-30T10:07:39.614Z,3375.00
2022-10-30T10:08:39.578Z,3498.75
2022-10-30T10:09:39.602Z,3425.62
2022-10-30T10:10:39.560Z,3313.12
2022-10-30T10:11:39.584Z,3403.12
2022-10-30T10:12:39.553Z,3217.50
2022-10-30T10:13:39.666Z,3150.00
2022-10-30T10:14:39.552Z,3318.75
2022-10-30T10:15:39.590Z,3223.12
2022-10-30T10:16:39.563Z,3616.88
2022-10-30T10:17:39.544Z,3498.75
2022-10-30T10:18:39.656Z,3211.88
2022-10-30T10:19:39.513Z,3009.38
2022-10-30T10:20:39.548Z,2868.75
2022-10-30T10:21:39.521Z,2818.12
2022-10-30T10:22:39.509Z,2683.12
2022-10-30T10:23:39.509Z,2745.00
2022-10-30T10:24:39.611Z,2638.12
2022-10-30T10:25:39.502Z,2565.00
2022-10-30T10:26:39.525Z,2694.38
2022-10-30T10:27:39.512Z,2778.75
2022-10-30T10:28:39.500Z,2722.50
2022-10-30T10:29:39.515Z,2840.62
2022-10-30T10:30:39.521Z,2874.38
2022-10-30T10:31:39.504Z,2745.00
2022-10-30T10:32:39.497Z,2570.62
2022-10-30T10:33:39.481Z,2655.00
2022-10-30T10:34:39.479Z,2818.12
2022-10-30T10:35:39.605Z,2795.62
2022-10-30T10:36:39.512Z,2835.00
2022-10-30T10:37:39.459Z,2975.62
2022-10-30T10:38:39.476Z,2919.38
2022-10-30T10:39:39.472Z,3054.38
2022-10-30T10:40:39.604Z,3121.88
2022-10-30T10:41:39.473Z,2666.25
2022-10-30T10:42:39.471Z,3048.75
2022-10-30T10:43:39.451Z,3161.25
2022-10-30T10:44:39.439Z,3183.75
2022-10-30T10:45:39.465Z,2953.12
2022-10-30T10:46:39.548Z,2801.25
2022-10-30T10:47:39.468Z,2818.12
2022-10-30T10:48:39.413Z,2733.75
2022-10-30T10:49:40.306Z,2655.00
2022-10-30T10:50:39.416Z,2795.62
2022-10-30T10:51:39.518Z,2446.88
2022-10-30T10:52:39.406Z,2964.38
2022-10-30T10:53:39.402Z,2913.75
2022-10-30T10:54:39.400Z,2536.88
2022-10-30T10:55:39.376Z,2430.00
2022-10-30T10:56:39.387Z,2193.75
2022-10-30T10:57:39.512Z,2368.12
2022-10-30T10:58:39.366Z,2733.75
2022-10-30T10:59:39.380Z,2649.38
2022-10-30T11:00:39.368Z,2480.62
2022-10-30T11:01:39.433Z,2818.12
2022-10-30T11:02:39.481Z,2880.00
2022-10-30T11:03:39.349Z,2480.62
2022-10-30T11:04:39.358Z,2632.50
2022-10-30T11:05:39.376Z,2570.62
2022-10-30T11:06:39.339Z,2300.62
2022-10-30T11:07:39.317Z,2334.38
2022-10-30T11:08:39.463Z,2328.75
2022-10-30T11:09:39.331Z,2283.75
2022-10-30T11:10:39.313Z,2193.75
2022-10-30T11:11:39.293Z,2081.25
2022-10-30T11:12:39.301Z,2008.12
2022-10-30T11:13:39.400Z,1794.38
2022-10-30T11:14:39.320Z,1743.75
2022-10-30T11:15:39.280Z,1783.12
2022-10-30T11:16:39.283Z,1732.50
2022-10-30T11:17:39.286Z,1603.12
2022-10-30T11:18:39.263Z,1620.00
2022-10-30T11:19:39.284Z,1608.75
2022-10-30T11:20:39.239Z,1597.50
2022-10-30T11:21:39.241Z,1698.75
2022-10-30T11:22:39.233Z,1721.25
2022-10-30T11:23:39.251Z,1704.38
2022-10-30T11:24:39.219Z,1676.25
2022-10-30T11:25:39.214Z,1625.62
2022-10-30T11:26:39.210Z,1608.75
2022-10-30T11:27:39.225Z,1608.75
2022-10-30T11:28:39.198Z,1653.75
2022-10-30T11:29:39.203Z,1603.12
2022-10-30T11:30:39.219Z,1569.38
2022-10-30T11:31:39.196Z,1513.12
2022-10-30T11:32:39.243Z,1496.25
2022-10-30T11:33:39.181Z,1434.38
2022-10-30T11:34:42.661Z,1710.00
2022-10-30T11:35:41.303Z,1940.62
2022-10-30T11:36:39.172Z,2306.25
2022-10-30T11:37:39.168Z,2345.62
2022-10-30T11:38:39.170Z,2250.00
2022-10-30T11:39:39.164Z,2126.25
2022-10-30T11:40:39.155Z,2250.00
2022-10-30T11:41:39.284Z,2092.50
2022-10-30T11:42:39.154Z,1884.38
2022-10-30T11:43:39.144Z,1906.88
2022-10-30T11:44:39.138Z,1940.62
2022-10-30T11:45:39.144Z,1839.38
2022-10-30T11:46:39.150Z,1755.00
2022-10-30T11:47:39.126Z,1726.88
2022-10-30T11:48:39.103Z,1721.25
2022-10-30T11:49:39.090Z,1642.50
2022-10-30T11:50:39.107Z,1648.12
2022-10-30T11:51:39.144Z,1620.00
2022-10-30T11:52:39.119Z,1777.50
2022-10-30T11:53:39.083Z,1738.12
2022-10-30T11:54:39.071Z,1687.50
2022-10-30T11:55:39.076Z,1659.38
2022-10-30T11:56:39.059Z,1687.50
2022-10-30T11:57:39.094Z,1715.62
2022-10-30T11:58:39.059Z,1766.25
2022-10-30T11:59:39.052Z,1783.12
2022-10-30T12:00:39.044Z,1766.25
2022-10-30T12:01:39.312Z,1816.88
2022-10-30T12:02:39.094Z,1833.75
2022-10-30T12:03:39.041Z,1856.25
2022-10-30T12:04:39.040Z,1985.62
2022-10-30T12:05:39.052Z,2075.62
2022-10-30T12:06:39.022Z,2148.75
2022-10-30T12:07:39.024Z,2250.00
2022-10-30T12:08:39.137Z,2368.12
2022-10-30T12:09:39.014Z,2503.12
2022-10-30T12:10:39.015Z,2626.88
2022-10-30T12:11:39.006Z,2846.25
2022-10-30T12:12:39.003Z,3408.75
2022-10-30T12:13:38.976Z,4308.75
2022-10-30T12:14:40.092Z,4837.50
2022-10-30T12:15:38.985Z,4044.38
2022-10-30T12:16:38.976Z,3166.88
2022-10-30T12:17:38.985Z,2660.62
2022-10-30T12:18:38.987Z,2221.88
2022-10-30T12:19:38.970Z,1822.50
2022-10-30T12:20:38.995Z,1535.62
2022-10-30T12:21:38.957Z,1333.12
2022-10-30T12:22:38.946Z,1237.50
2022-10-30T12:23:38.964Z,1170.00
2022-10-30T12:24:38.944Z,1102.50
2022-10-30T12:25:38.963Z,1057.50
2022-10-30T12:26:38.922Z,1023.75
2022-10-30T12:27:38.929Z,995.62
2022-10-30T12:28:38.900Z,973.12
2022-10-30T12:30:41.017Z,933.75
2022-10-30T12:31:38.911Z,916.88
2022-10-30T12:32:39.736Z,894.38
2022-10-30T12:33:38.904Z,888.75
2022-10-30T12:34:38.898Z,877.50
2022-10-30T12:35:38.900Z,866.25
2022-10-30T12:36:38.996Z,860.62
2022-10-30T12:37:38.886Z,855.00
2022-10-30T12:38:38.902Z,843.75
2022-10-30T12:39:38.889Z,832.50
2022-10-30T12:40:38.864Z,821.25
2022-10-30T12:41:38.917Z,810.00
2022-10-30T12:42:38.938Z,804.38
2022-10-30T12:43:38.838Z,798.75
2022-10-30T12:44:38.848Z,765.00
2022-10-30T12:45:38.857Z,770.62
2022-10-30T12:46:38.829Z,770.62
2022-10-30T12:47:38.923Z,781.88
2022-10-30T12:48:38.808Z,781.88
2022-10-30T12:49:38.820Z,787.50